createdAt,value
2023-01-29T00:01:41.178Z,3.95
2023-01-29T00:04:44.236Z,3.60
2023-01-29T00:07:47.910Z,4.18
2023-01-29T00:10:51.849Z,4.10
2023-01-29T00:13:55.735Z,3.92
2023-01-29T00:16:59.000Z,4.25
2023-01-29T00:20:01.312Z,4.10
2023-01-29T00:23:04.016Z,4.57
2023-01-29T00:26:06.438Z,4.30
2023-01-29T00:29:09.642Z,4.40
2023-01-29T00:32:13.143Z,4.30
2023-01-29T00:35:16.440Z,4.90
2023-01-29T00:38:19.465Z,4.78
2023-01-29T00:41:21.754Z,4.60
2023-01-29T00:44:24.374Z,4.80
2023-01-29T00:47:26.843Z,5.13
2023-01-29T00:50:29.791Z,4.45
2023-01-29T00:53:32.730Z,5.22
2023-01-29T00:56:35.603Z,5.22
2023-01-29T00:59:38.409Z,5.53
2023-01-29T01:02:40.663Z,5.13
2023-01-29T01:05:43.472Z,5.07
2023-01-29T01:08:45.856Z,5.28
2023-01-29T01:11:48.635Z,5.50
2023-01-29T01:14:50.922Z,5.07
2023-01-29T01:17:53.659Z,5.47
2023-01-29T01:20:56.320Z,5.43
2023-01-29T01:23:59.995Z,5.30
2023-01-29T01:27:02.917Z,5.25
2023-01-29T01:30:05.403Z,5.55
2023-01-29T01:33:07.753Z,5.57
2023-01-29T01:36:10.412Z,5.57
2023-01-29T01:39:13.396Z,5.18
2023-01-29T01:42:16.164Z,5.13
2023-01-29T01:45:18.478Z,4.90
2023-01-29T01:48:20.739Z,5.05
2023-01-29T01:51:22.967Z,4.65
2023-01-29T01:54:26.080Z,4.88
2023-01-29T01:57:28.920Z,4.68
2023-01-29T02:00:31.135Z,4.85
2023-01-29T02:03:34.145Z,4.57
2023-01-29T02:06:36.473Z,4.93
2023-01-29T02:09:38.772Z,4.78
2023-01-29T02:12:41.666Z,5.18
2023-01-29T02:15:44.283Z,5.40
2023-01-29T02:18:47.100Z,5.00
2023-01-29T02:21:50.220Z,5.13
2023-01-29T02:24:53.601Z,5.18
2023-01-29T02:27:56.785Z,5.22
2023-01-29T02:31:00.611Z,5.45
2023-01-29T02:34:03.598Z,5.38
2023-01-29T02:37:06.239Z,5.90
2023-01-29T02:40:09.249Z,5.65
2023-01-29T02:43:12.303Z,5.50
2023-01-29T02:46:14.903Z,5.82
2023-01-29T02:49:18.296Z,5.40
2023-01-29T02:52:22.074Z,5.97
2023-01-29T02:55:27.154Z,5.63
2023-01-29T02:58:30.449Z,5.90
2023-01-29T03:01:34.135Z,5.85
2023-01-29T03:04:37.589Z,6.35
2023-01-29T03:07:40.401Z,5.95
2023-01-29T03:10:45.124Z,6.20
2023-01-29T03:13:48.380Z,5.90
2023-01-29T03:16:51.324Z,5.90
2023-01-29T03:19:55.983Z,6.30
2023-01-29T03:22:59.315Z,6.13
2023-01-29T03:26:02.470Z,5.95
2023-01-29T03:29:06.512Z,5.57
2023-01-29T03:32:10.233Z,5.00
2023-01-29T03:35:13.827Z,5.60
2023-01-29T03:38:17.595Z,5.53
2023-01-29T03:41:21.172Z,5.05
2023-01-29T03:44:24.558Z,5.32
2023-01-29T03:47:27.476Z,4.78
2023-01-29T03:50:30.003Z,4.88
2023-01-29T03:53:33.153Z,5.15
2023-01-29T03:56:36.551Z,4.60
2023-01-29T03:59:40.099Z,5.28
2023-01-29T04:03:01.489Z,4.93
2023-01-29T04:06:05.849Z,5.40
2023-01-29T04:09:10.337Z,4.82
2023-01-29T04:12:15.466Z,5.57
2023-01-29T04:15:19.030Z,5.47
2023-01-29T04:18:22.844Z,5.53
2023-01-29T04:21:40.529Z,5.32
2023-01-29T04:24:43.415Z,5.60
2023-01-29T04:27:46.505Z,6.10
2023-01-29T04:30:49.132Z,6.28
2023-01-29T04:33:51.862Z,5.90
2023-01-29T04:36:55.034Z,5.85
2023-01-29T04:39:57.650Z,6.80
2023-01-29T04:43:00.151Z,6.25
2023-01-29T04:46:03.302Z,6.15
2023-01-29T04:49:06.691Z,5.97
2023-01-29T04:52:09.523Z,6.43
2023-01-29T04:55:12.478Z,6.60
2023-01-29T04:58:14.680Z,6.47
2023-01-29T05:01:17.337Z,6.50
2023-01-29T05:04:19.584Z,6.32
2023-01-29T05:07:22.246Z,7.03
2023-01-29T05:10:24.481Z,6.95
2023-01-29T05:13:26.762Z,6.38
2023-01-29T05:16:29.938Z,6.25
2023-01-29T05:19:33.169Z,6.35
2023-01-29T05:22:36.376Z,6.05
2023-01-29T05:25:39.181Z,5.90
2023-01-29T05:28:41.506Z,5.93
2023-01-29T05:31:43.813Z,5.50
2023-01-29T05:34:46.388Z,5.53
2023-01-29T05:37:49.185Z,5.40
2023-01-29T05:40:51.436Z,5.60
2023-01-29T05:43:54.143Z,5.75
2023-01-29T05:46:56.617Z,5.88
2023-01-29T05:49:59.639Z,5.82
2023-01-29T05:53:01.959Z,5.72
2023-01-29T05:56:04.601Z,6.05
2023-01-29T05:59:07.037Z,6.07
2023-01-29T06:02:09.448Z,5.88
2023-01-29T06:05:12.262Z,6.47
2023-01-29T06:08:15.165Z,5.93
2023-01-29T06:11:18.059Z,6.22
2023-01-29T06:14:21.057Z,6.60
2023-01-29T06:17:23.840Z,6.35
2023-01-29T06:20:26.820Z,6.50
2023-01-29T06:23:30.087Z,6.38
2023-01-29T06:26:33.506Z,6.40
2023-01-29T06:29:36.234Z,6.47
2023-01-29T06:32:39.824Z,6.85
2023-01-29T06:35:42.409Z,6.30
2023-01-29T06:38:45.372Z,6.35
2023-01-29T06:41:48.740Z,7.28
2023-01-29T06:44:51.991Z,6.38
2023-01-29T06:47:54.431Z,7.13
2023-01-29T06:50:57.013Z,7.30
2023-01-29T06:54:00.326Z,6.60
2023-01-29T06:57:03.264Z,6.63
2023-01-29T07:00:06.573Z,6.75
2023-01-29T07:03:09.725Z,7.35
2023-01-29T07:06:12.734Z,6.82
2023-01-29T07:09:14.980Z,6.47
2023-01-29T07:12:17.250Z,6.25
2023-01-29T07:15:19.931Z,5.90
2023-01-29T07:18:22.170Z,5.95
2023-01-29T07:21:24.915Z,6.15
2023-01-29T07:24:27.494Z,6.22
2023-01-29T07:27:30.504Z,5.50
2023-01-29T07:30:33.278Z,5.30
2023-01-29T07:33:35.980Z,5.55
2023-01-29T07:36:38.663Z,5.70
2023-01-29T07:39:40.966Z,5.90
2023-01-29T07:42:43.235Z,5.88
2023-01-29T07:45:46.105Z,5.97
2023-01-29T07:48:49.540Z,6.13
2023-01-29T07:51:52.181Z,6.38
2023-01-29T07:54:54.453Z,6.32
2023-01-29T07:57:57.140Z,6.70
2023-01-29T08:00:59.949Z,7.15
2023-01-29T08:04:02.574Z,6.97
2023-01-29T08:07:05.560Z,6.80
2023-01-29T08:10:08.497Z,7.20
2023-01-29T08:13:11.279Z,7.38
2023-01-29T08:16:13.827Z,7.10
2023-01-29T08:19:16.113Z,7.90
2023-01-29T08:22:19.077Z,7.85
2023-01-29T08:25:22.696Z,7.80
2023-01-29T08:28:25.288Z,7.80
2023-01-29T08:31:28.190Z,7.45
2023-01-29T08:34:31.633Z,7.80
2023-01-29T08:37:35.140Z,7.15
2023-01-29T08:40:38.366Z,6.90
2023-01-29T08:43:41.353Z,7.65
2023-01-29T08:46:45.174Z,7.35
2023-01-29T08:49:48.079Z,7.03
2023-01-29T08:52:50.320Z,7.28
2023-01-29T08:55:53.398Z,7.80
2023-01-29T08:58:57.304Z,7.30
2023-01-29T09:02:01.089Z,8.13
2023-01-29T09:05:04.272Z,7.95
2023-01-29T09:08:07.570Z,7.13
2023-01-29T09:11:10.496Z,7.07
2023-01-29T09:14:13.633Z,6.53
2023-01-29T09:17:16.866Z,6.35
2023-01-29T09:20:20.634Z,6.55
2023-01-29T09:23:23.927Z,6.60
2023-01-29T09:26:26.876Z,6.45
2023-01-29T09:29:29.902Z,6.55
2023-01-29T09:35:55.086Z,5.82
2023-01-29T09:38:57.816Z,6.38
2023-01-29T09:42:00.364Z,6.53
2023-01-29T09:45:02.675Z,6.25
2023-01-29T09:48:05.320Z,6.25
2023-01-29T09:51:08.320Z,6.45
2023-01-29T09:54:11.154Z,7.10
2023-01-29T09:57:14.181Z,6.30
2023-01-29T10:00:16.961Z,6.43
2023-01-29T10:03:19.973Z,6.55
2023-01-29T10:06:22.682Z,6.75
2023-01-29T10:09:25.794Z,6.82
2023-01-29T10:12:29.320Z,6.72
2023-01-29T10:15:32.023Z,6.50
2023-01-29T10:18:34.681Z,6.43
2023-01-29T10:21:37.041Z,6.45
2023-01-29T10:24:39.178Z,6.60
2023-01-29T10:27:42.024Z,6.45
2023-01-29T10:30:44.962Z,6.82
2023-01-29T10:34:00.975Z,6.25
2023-01-29T10:37:05.439Z,6.55
2023-01-29T10:40:08.262Z,6.07
2023-01-29T10:43:11.247Z,6.32
2023-01-29T10:46:14.448Z,5.88
2023-01-29T10:49:18.047Z,6.72
2023-01-29T10:52:21.158Z,6.05
2023-01-29T10:55:24.862Z,6.60
2023-01-29T10:58:27.685Z,6.38
2023-01-29T11:01:30.011Z,6.55
2023-01-29T11:04:32.275Z,6.28
2023-01-29T11:07:34.986Z,6.13
2023-01-29T11:10:38.382Z,6.65
2023-01-29T11:13:41.376Z,5.78
2023-01-29T11:16:45.073Z,6.45
2023-01-29T11:19:47.767Z,6.18
2023-01-29T11:22:49.994Z,6.85
2023-01-29T11:25:53.046Z,5.95
2023-01-29T11:28:56.016Z,6.03
2023-01-29T11:31:58.835Z,5.75
2023-01-29T11:35:01.505Z,5.85
2023-01-29T11:38:04.069Z,5.75
2023-01-29T11:41:06.748Z,5.38
2023-01-29T11:44:09.546Z,5.53
2023-01-29T11:47:12.684Z,5.50
2023-01-29T11:50:15.262Z,5.28
2023-01-29T11:53:18.399Z,5.68
2023-01-29T11:56:21.553Z,5.38
2023-01-29T11:59:24.863Z,5.68
2023-01-29T12:02:28.207Z,5.35
2023-01-29T12:05:31.250Z,5.72
2023-01-29T12:08:34.313Z,6.25
2023-01-29T12:11:37.283Z,5.90
2023-01-29T12:14:39.794Z,6.30
2023-01-29T12:17:42.557Z,5.90
2023-01-29T12:20:45.280Z,5.25
2023-01-29T12:23:48.194Z,5.95
2023-01-29T12:26:51.139Z,6.50
2023-01-29T12:29:54.892Z,6.40
2023-01-29T12:32:57.538Z,6.47
2023-01-29T12:36:00.741Z,6.18
2023-01-29T12:39:03.770Z,6.47
2023-01-29T12:42:06.755Z,6.65
2023-01-29T12:45:09.372Z,6.07
2023-01-29T12:48:12.450Z,6.93
2023-01-29T12:51:15.986Z,6.85
2023-01-29T12:54:19.506Z,7.15
2023-01-29T12:57:23.041Z,6.32
2023-01-29T13:00:25.441Z,7.45
2023-01-29T13:03:28.478Z,6.82
2023-01-29T13:06:31.336Z,7.05
2023-01-29T13:09:34.471Z,6.95
2023-01-29T13:12:37.508Z,7.05
2023-01-29T13:15:40.612Z,7.80
2023-01-29T13:18:43.555Z,7.63
2023-01-29T13:21:46.833Z,7.60
2023-01-29T13:25:03.586Z,7.43
2023-01-29T13:28:06.941Z,7.47
2023-01-29T13:31:09.653Z,7.65
2023-01-29T13:34:12.832Z,7.65
2023-01-29T13:37:16.182Z,8.02
2023-01-29T13:40:19.368Z,8.30
2023-01-29T13:43:22.506Z,8.30
2023-01-29T13:46:26.234Z,8.27
2023-01-29T13:49:28.745Z,7.95
2023-01-29T13:52:31.474Z,8.32
2023-01-29T13:55:33.769Z,7.88
2023-01-29T13:58:36.819Z,7.80
2023-01-29T14:01:39.926Z,7.40
2023-01-29T14:04:43.315Z,7.10
2023-01-29T14:07:45.692Z,6.75
2023-01-29T14:10:48.692Z,7.25
2023-01-29T14:13:52.062Z,6.72
2023-01-29T14:16:55.865Z,6.65
2023-01-29T14:19:58.814Z,6.57
2023-01-29T14:23:01.473Z,6.45
2023-01-29T14:26:04.337Z,6.70
2023-01-29T14:29:07.900Z,6.68
2023-01-29T14:32:10.583Z,6.32
2023-01-29T14:35:14.236Z,6.60
2023-01-29T14:38:17.600Z,6.95
2023-01-29T14:41:20.828Z,7.03
2023-01-29T14:44:24.705Z,7.07
2023-01-29T14:47:27.649Z,6.78
2023-01-29T14:50:30.368Z,7.47
2023-01-29T14:53:33.022Z,7.03
2023-01-29T14:56:35.316Z,7.30
2023-01-29T14:59:38.312Z,7.25
2023-01-29T15:02:41.042Z,7.68
2023-01-29T15:05:43.358Z,7.68
2023-01-29T15:08:45.998Z,7.95
2023-01-29T15:11:48.584Z,7.40
2023-01-29T15:14:51.899Z,7.65
2023-01-29T15:17:54.442Z,8.15
2023-01-29T15:20:56.694Z,8.32
2023-01-29T15:23:59.160Z,7.93
2023-01-29T15:27:02.121Z,8.10
2023-01-29T15:30:05.139Z,8.32
2023-01-29T15:33:08.582Z,8.20
2023-01-29T15:36:12.070Z,7.75
2023-01-29T15:39:15.132Z,8.10
2023-01-29T15:42:18.390Z,8.02
2023-01-29T15:45:21.621Z,7.82
2023-01-29T15:48:24.818Z,8.32
2023-01-29T15:51:27.768Z,8.73
2023-01-29T15:54:30.045Z,8.38
2023-01-29T15:57:32.395Z,8.18
2023-01-29T16:00:34.614Z,8.80
2023-01-29T16:03:37.598Z,8.63
2023-01-29T16:06:40.526Z,8.45
2023-01-29T16:09:43.076Z,8.43
2023-01-29T16:12:46.039Z,8.43
2023-01-29T16:15:48.816Z,8.52
2023-01-29T16:18:59.562Z,8.35
2023-01-29T16:22:02.652Z,7.35
2023-01-29T16:25:05.385Z,7.35
2023-01-29T16:28:07.844Z,7.20
2023-01-29T16:31:10.792Z,7.07
2023-01-29T16:34:13.545Z,7.28
2023-01-29T16:37:16.644Z,6.93
2023-01-29T16:40:20.037Z,7.35
2023-01-29T16:43:26.206Z,7.28
2023-01-29T16:46:31.017Z,7.40
2023-01-29T16:49:34.508Z,6.80
2023-01-29T16:52:37.560Z,7.13
2023-01-29T16:55:40.537Z,7.35
2023-01-29T16:58:42.983Z,7.72
2023-01-29T17:01:45.797Z,7.75
2023-01-29T17:04:48.622Z,8.40
2023-01-29T17:07:50.658Z,7.85
2023-01-29T17:10:53.084Z,8.20
2023-01-29T17:13:55.789Z,8.38
2023-01-29T17:16:58.829Z,8.57
2023-01-29T17:20:02.222Z,8.45
2023-01-29T17:23:06.041Z,8.23
2023-01-29T17:26:08.557Z,8.30
2023-01-29T17:29:11.317Z,8.57
2023-01-29T17:32:13.865Z,8.68
2023-01-29T17:35:17.140Z,8.70
2023-01-29T17:38:25.929Z,7.93
2023-01-29T17:41:29.728Z,8.40
2023-01-29T17:44:32.466Z,8.52
2023-01-29T17:47:35.031Z,8.32
2023-01-29T17:50:37.765Z,8.98
2023-01-29T17:53:46.203Z,8.00
2023-01-29T17:56:49.647Z,8.65
2023-01-29T17:59:53.275Z,8.70
2023-01-29T18:02:55.936Z,8.65
2023-01-29T18:06:00.300Z,8.73
2023-01-29T18:09:04.246Z,7.85
2023-01-29T18:12:07.065Z,7.93
2023-01-29T18:15:10.441Z,7.50
2023-01-29T18:18:13.655Z,7.55
2023-01-29T18:21:16.326Z,7.40
2023-01-29T18:24:19.806Z,7.45
2023-01-29T18:27:22.554Z,6.88
2023-01-29T18:30:25.612Z,6.68
2023-01-29T18:33:28.088Z,6.60
2023-01-29T18:36:30.407Z,6.85
2023-01-29T18:39:32.958Z,7.10
2023-01-29T18:42:36.225Z,7.47
2023-01-29T18:45:39.190Z,7.30
2023-01-29T18:48:43.149Z,7.28
2023-01-29T18:51:45.414Z,7.25
2023-01-29T18:54:48.626Z,7.57
2023-01-29T18:58:26.559Z,7.13
2023-01-29T19:01:14.681Z,7.65
2023-01-29T19:04:17.803Z,7.47
2023-01-29T19:07:21.364Z,7.55
2023-01-29T19:10:24.037Z,7.45
2023-01-29T19:13:26.750Z,8.00
2023-01-29T19:16:29.672Z,7.85
2023-01-29T19:19:33.095Z,7.88
2023-01-29T19:22:35.957Z,7.55
2023-01-29T19:25:39.270Z,7.68
2023-01-29T19:28:41.867Z,7.72
2023-01-29T19:31:45.025Z,8.02
2023-01-29T19:34:48.036Z,8.20
2023-01-29T19:37:50.431Z,8.18
2023-01-29T19:40:53.098Z,7.88
2023-01-29T19:43:55.630Z,8.02
2023-01-29T19:46:58.465Z,7.40
2023-01-29T19:50:02.658Z,8.60
2023-01-29T19:53:04.974Z,7.75
2023-01-29T19:56:07.648Z,7.95
2023-01-29T19:59:10.944Z,8.02
2023-01-29T20:02:14.676Z,8.02
2023-01-29T20:05:18.000Z,8.45
2023-01-29T20:08:21.014Z,8.07
2023-01-29T20:11:23.897Z,7.57
2023-01-29T20:14:26.395Z,7.50
2023-01-29T20:17:29.437Z,7.13
2023-01-29T20:20:32.740Z,7.13
2023-01-29T20:23:38.488Z,6.32
2023-01-29T20:26:42.284Z,6.57
2023-01-29T20:29:47.738Z,6.60
2023-01-29T20:32:50.142Z,7.22
2023-01-29T20:35:53.139Z,6.88
2023-01-29T20:38:58.602Z,6.80
2023-01-29T20:42:01.882Z,6.72
2023-01-29T20:45:05.429Z,6.72
2023-01-29T20:48:07.990Z,7.32
2023-01-29T20:51:10.153Z,7.18
2023-01-29T20:54:13.267Z,7.50
2023-01-29T20:57:16.651Z,6.80
2023-01-29T21:00:19.829Z,6.90
2023-01-29T21:03:23.369Z,7.75
2023-01-29T21:06:26.528Z,7.43
2023-01-29T21:09:29.670Z,7.70
2023-01-29T21:12:32.412Z,7.90
2023-01-29T21:15:35.562Z,7.65
2023-01-29T21:18:38.720Z,7.97
2023-01-29T21:21:41.636Z,8.32
2023-01-29T21:24:44.655Z,8.07
2023-01-29T21:27:47.937Z,8.80
2023-01-29T21:30:50.905Z,7.95
2023-01-29T21:33:53.963Z,8.07
2023-01-29T21:36:56.757Z,8.38
2023-01-29T21:40:00.284Z,8.40
2023-01-29T21:43:03.266Z,8.55
2023-01-29T21:46:06.355Z,8.43
2023-01-29T21:49:09.834Z,8.45
2023-01-29T21:52:12.932Z,8.60
2023-01-29T21:55:15.458Z,8.93
2023-01-29T21:58:18.459Z,8.43
2023-01-29T22:01:38.128Z,9.05
2023-01-29T22:04:41.354Z,8.65
2023-01-29T22:07:44.321Z,9.40
2023-01-29T22:10:48.031Z,9.25
2023-01-29T22:13:51.042Z,9.63
2023-01-29T22:16:54.098Z,9.05
2023-01-29T22:19:56.841Z,8.13
2023-01-29T22:23:00.454Z,8.35
2023-01-29T22:26:03.599Z,7.80
2023-01-29T22:29:06.906Z,7.70
2023-01-29T22:32:09.601Z,7.88
2023-01-29T22:35:12.872Z,7.72
2023-01-29T22:38:15.986Z,7.90
2023-01-29T22:41:18.886Z,7.57
2023-01-29T22:44:21.210Z,7.93
2023-01-29T22:47:23.435Z,7.68
2023-01-29T22:50:25.672Z,7.90
2023-01-29T22:53:28.555Z,8.45
2023-01-29T22:56:31.621Z,8.27
2023-01-29T22:59:34.284Z,7.70
2023-01-29T23:02:37.266Z,8.07
2023-01-29T23:05:39.857Z,8.02
2023-01-29T23:08:43.093Z,7.90
2023-01-29T23:11:45.811Z,8.27
2023-01-29T23:14:48.846Z,8.88
2023-01-29T23:17:52.098Z,8.60
2023-01-29T23:20:54.861Z,8.90
2023-01-29T23:23:58.363Z,9.10
2023-01-29T23:27:01.462Z,8.73
2023-01-29T23:30:04.018Z,9.05
2023-01-29T23:33:08.018Z,9.15
2023-01-29T23:36:12.990Z,8.80
2023-01-29T23:39:16.490Z,9.18
2023-01-29T23:42:20.529Z,9.23
2023-01-29T23:45:23.915Z,9.05
2023-01-29T23:48:26.118Z,8.93
2023-01-29T23:51:28.736Z,8.60
2023-01-29T23:54:30.709Z,9.43
2023-01-29T23:57:33.256Z,8.82
